Forest fire From: 18-06-2018 08:00 Until: 19-06-2018 06:14 warning for: Forest fire Level: Yellow info button
suomi:
Metsäpalovaroitus on voimassa.

svenska:
Varning för skogsbrand gäller.

english:
A forest fire warning is in force. 


Thunder radar more information blitzortung!


Löydät sääaseman tiedot myös:

European Weather Network

Finland Weather Exchange

Weather Underground

AWEKAS



Weather Underground säähistoriasivu

Päivittäin yhteenveto Tou 31, 2017 Yksiköt:  Metriset    Englantilaiset   Molemmat
« Edellinen Päivä
Seuraava Päivä »
Päivittäin Viikoittain Kuukausittain Vuosittain Mukautettu
  Korkea: Matala: Keskiarvo:
Lämpötila: -17.8 °C -14.7 °C -13.2 °C
Kastepiste: -17.8 °C -19.3 °C -15.9 °C
Kosteus: Humidity % 39 % 73 %
Tuulen nopeus: 0 km/h 0 km/h 4 km/h
Tuulenpuuska: 0 km/h - -
Tuuli:- - WNW
Ilmanpaine: 0 hPa 33694.1 hPa -
Sade: 7.62 mm    
Historical Graphs
 
 
Taulukkotiedot Tou 31, 2017
Aika Lämpötila Kastepiste Ilmanpaine Tuuli Tuulen nopeus Tuulenpuuska Kosteus Sademäärä (tunneittain)
-17.8 °C -17.8 °C 0 hPa Calm     Humidity % 0 mm
00:00 -13.6 °C -14 °C 33890.5 hPa Calm     95 % 12.7 mm
00:15 -13.6 °C -13.9 °C 33880.3 hPa Calm     95 % 7.62 mm
00:30 -13.5 °C -13.9 °C 33866.8 hPa Calm     95 % 7.62 mm
00:45 -13.4 °C -13.8 °C 33856.6 hPa Calm     96 % 7.62 mm
01:00 -13.4 °C -13.8 °C 33856.6 hPa Calm     96 % 0 mm
01:15 -13.4 °C -13.7 °C 33843.1 hPa Calm     96 % 0 mm
01:30 -13.4 °C -13.7 °C 33843.1 hPa Calm   5.1 km/h 96 % 0 mm
01:45 -13.4 °C -13.7 °C 33832.9 hPa Calm   5.1 km/h 96 % 0 mm
02:00 -13.4 °C -13.8 °C 33832.9 hPa Calm   2.6 km/h 96 % 0 mm
02:45 -13.6 °C -13.9 °C 33809.2 hPa SW 2.6 km/h 7.7 km/h 96 % 7.62 mm
03:00 -13.6 °C -13.9 °C 33799.1 hPa Calm   5.1 km/h 96 % 7.62 mm
03:15 -13.6 °C -13.9 °C 33788.9 hPa Calm     96 % 0 mm
03:30 -13.7 °C -14 °C 33788.9 hPa Calm     96 % 0 mm
03:45 -13.7 °C -14 °C 33775.4 hPa Calm     96 % 0 mm
04:15 -13.7 °C -14 °C 33765.2 hPa Calm     96 % 0 mm
04:30 -13.7 °C -14.1 °C 33751.6 hPa Calm     96 % 0 mm
04:45 -13.7 °C -14.1 °C 33751.6 hPa Calm     96 % 0 mm
05:00 -13.7 °C -14.1 °C 33741.5 hPa Calm     96 % 0 mm
05:15 -13.7 °C -14.1 °C 33741.5 hPa Calm     96 % 0 mm
05:30 -13.7 °C -14 °C 33731.3 hPa Calm     96 % 0 mm
05:45 -13.7 °C -14 °C 33717.8 hPa Calm     96 % 0 mm
06:00 -13.7 °C -14 °C 33717.8 hPa Calm     96 % 0 mm
06:15 -13.7 °C -14 °C 33707.6 hPa Calm     96 % 0 mm
06:30 -13.6 °C -13.9 °C 33707.6 hPa Calm   2.6 km/h 96 % 0 mm
06:45 -13.6 °C -13.9 °C 33694.1 hPa Calm   5.1 km/h 96 % 0 mm
07:00 -13.5 °C -13.8 °C 33694.1 hPa Calm     96 % 0 mm
07:15 -13.4 °C -13.8 °C 33707.6 hPa Calm   5.1 km/h 96 % 0 mm
07:30 -13.5 °C -13.8 °C 33707.6 hPa Calm   7.7 km/h 96 % 0 mm
07:45 -13.4 °C -13.8 °C 33694.1 hPa Calm     96 % 0 mm
08:00 -13.4 °C -13.7 °C 33694.1 hPa Calm   2.6 km/h 96 % 0 mm
08:15 -13.3 °C -13.6 °C 33694.1 hPa Calm     96 % 0 mm
08:30 -13.4 °C -13.8 °C 33694.1 hPa WNW 2.6 km/h 12.9 km/h 95 % 0 mm
08:45 -13.4 °C -13.8 °C 33694.1 hPa Calm   7.7 km/h 95 % 0 mm
09:00 -13.4 °C -13.8 °C 33694.1 hPa Calm   10.3 km/h 95 % 0 mm
09:15 -13.4 °C -13.9 °C 33694.1 hPa Calm   10.3 km/h 94 % 0 mm
09:30 -13.4 °C -13.8 °C 33694.1 hPa Calm   7.7 km/h 95 % 0 mm
09:45 -13.4 °C -13.9 °C 33694.1 hPa Calm   10.3 km/h 94 % 0 mm
10:00 -13.4 °C -14 °C 33694.1 hPa NW 2.6 km/h 15.6 km/h 93 % 0 mm
10:15 -13.6 °C -14.1 °C 33707.6 hPa NW 7.7 km/h 23.3 km/h 94 % 0 mm
10:30 -13.6 °C -13.9 °C 33707.6 hPa NW 2.6 km/h 12.9 km/h 95 % 0 mm
10:45 -13.8 °C -14.3 °C 33707.6 hPa NW 5.1 km/h 12.9 km/h 94 % 0 mm
11:00 -14.1 °C -14.6 °C 33717.8 hPa North 5.1 km/h 15.6 km/h 94 % 0 mm
11:15 -14.5 °C -15.2 °C 33731.3 hPa NNW 7.7 km/h 23.3 km/h 92 % 0 mm
11:30 -14.5 °C -15.2 °C 33731.3 hPa NNW 5.1 km/h 15.6 km/h 91 % 0 mm
11:45 -14.3 °C -15.3 °C 33731.3 hPa NW 2.6 km/h 20.8 km/h 89 % 0 mm
12:00 -14.2 °C -15.4 °C 33741.5 hPa NNW 5.1 km/h 18.2 km/h 86 % 0 mm
12:15 -13.8 °C -15.6 °C 33741.5 hPa NNW 7.7 km/h 25.9 km/h 81 % 0 mm
12:30 -13 °C -14.9 °C 33741.5 hPa North 5.1 km/h 15.6 km/h 79 % 0 mm
12:45 -12.9 °C -15.8 °C 33741.5 hPa NNW 10.3 km/h 25.9 km/h 70 % 0 mm
13:00 -12.7 °C -15.7 °C 33741.5 hPa NNW 7.7 km/h 20.8 km/h 69 % 0 mm
13:15 -12.9 °C -16.4 °C 33751.6 hPa NNW 10.3 km/h 28.5 km/h 64 % 0 mm
13:30 -12.3 °C -16.2 °C 33751.6 hPa NNW 10.3 km/h 18.2 km/h 61 % 0 mm
13:45 -12.4 °C -16.8 °C 33765.2 hPa NW 15.6 km/h 38.8 km/h 58 % 0 mm
14:00 -12.3 °C -16.8 °C 33765.2 hPa NW 15.6 km/h 36.2 km/h 57 % 0 mm
14:15 -11.9 °C -17.1 °C 33765.2 hPa NNW 10.3 km/h 23.3 km/h 53 % 0 mm
14:30 -12 °C -17.4 °C 33765.2 hPa North 7.7 km/h 18.2 km/h 51 % 0 mm
14:45 -11.9 °C -17.8 °C 33775.4 hPa NNW 10.3 km/h 31.1 km/h 48 % 0 mm
15:00 -11.6 °C -17.8 °C 33775.4 hPa North 7.7 km/h 18.2 km/h 46 % 0 mm
15:15 -11.7 °C -17.9 °C 33775.4 hPa NNW 10.3 km/h 20.8 km/h 46 % 0 mm
15:30 -11.5 °C -17.9 °C 33788.9 hPa North 7.7 km/h 18.2 km/h 45 % 0 mm
15:45 -11.9 °C -18.7 °C 33788.9 hPa NNW 15.6 km/h 33.6 km/h 43 % 0 mm
16:00 -11.6 °C -18.4 °C 33788.9 hPa NNW 10.3 km/h 25.9 km/h 43 % 0 mm
16:15 -11.7 °C -18.6 °C 33788.9 hPa North 10.3 km/h 20.8 km/h 42 % 0 mm
16:30 -11.9 °C -18.6 °C 33788.9 hPa North 10.3 km/h 20.8 km/h 43 % 0 mm
16:45 -12.4 °C -18.6 °C 33799.1 hPa NNW 5.1 km/h 20.8 km/h 46 % 0 mm
17:00 -12.5 °C -18.5 °C 33799.1 hPa NW 10.3 km/h 31.1 km/h 47 % 0 mm
17:30 -11.6 °C -18.5 °C 33799.1 hPa North 7.7 km/h 18.2 km/h 42 % 0 mm
17:45 -11.4 °C -18.9 °C 33799.1 hPa NW 10.3 km/h 25.9 km/h 39 % 0 mm
18:00 -12.1 °C -18.9 °C 33799.1 hPa NNW 12.9 km/h 33.6 km/h 42 % 0 mm
18:15 -12.4 °C -18.8 °C 33809.2 hPa NW 12.9 km/h 36.2 km/h 45 % 0 mm
18:30 -12.2 °C -18.5 °C 33809.2 hPa NW 5.1 km/h 23.3 km/h 45 % 0 mm
18:45 -12.4 °C -19.1 °C 33809.2 hPa North 2.6 km/h 10.3 km/h 43 % 0 mm
19:00 -12.6 °C -18.5 °C 33809.2 hPa NW 2.6 km/h 18.2 km/h 47 % 0 mm
19:15 -12.4 °C -18.4 °C 33809.2 hPa NW 2.6 km/h 7.7 km/h 47 % 0 mm
19:30 -12.3 °C -18.7 °C 33809.2 hPa NW 2.6 km/h 12.9 km/h 45 % 0 mm
19:45 -12.1 °C -18.9 °C 33809.2 hPa NW 5.1 km/h 20.8 km/h 42 % 0 mm
20:00 -12.1 °C -19.3 °C 33809.2 hPa NW 12.9 km/h 36.2 km/h 40 % 0 mm
20:15 -12.3 °C -19.3 °C 33822.8 hPa WNW 12.9 km/h 33.6 km/h 41 % 0 mm
20:30 -12.7 °C -19.1 °C 33822.8 hPa NW 10.3 km/h 20.8 km/h 45 % 0 mm
20:45 -12.9 °C -18.7 °C 33822.8 hPa NW 5.1 km/h 20.8 km/h 48 % 0 mm
21:00 -12.9 °C -18.3 °C 33822.8 hPa West 5.1 km/h 20.8 km/h 51 % 0 mm
21:15 -12.9 °C -18.3 °C 33822.8 hPa West 2.6 km/h 18.2 km/h 51 % 0 mm
21:30 -13 °C -18.2 °C 33822.8 hPa SW 2.6 km/h 12.9 km/h 52 % 0 mm
21:45 -13.1 °C -17.9 °C 33822.8 hPa SW 2.6 km/h 20.8 km/h 54 % 0 mm
22:00 -13.3 °C -17.9 °C 33809.2 hPa SW 2.6 km/h 10.3 km/h 56 % 0 mm
22:15 -13.7 °C -17.7 °C 33809.2 hPa Calm   10.3 km/h 60 % 0 mm
22:30 -13.9 °C -17.6 °C 33822.8 hPa Calm   5.1 km/h 63 % 0 mm
22:45 -14.1 °C -17.4 °C 33809.2 hPa Calm   7.7 km/h 66 % 0 mm
23:00 -14.2 °C -17.2 °C 33822.8 hPa Calm   5.1 km/h 69 % 0 mm
23:15 -14.4 °C -17.3 °C 33822.8 hPa Calm   10.3 km/h 70 % 0 mm
23:30 -14.6 °C -17.3 °C 33822.8 hPa Calm   18.2 km/h 71 % 0 mm
23:45 -14.7 °C -17.3 °C 33822.8 hPa Calm   7.7 km/h 72 % 0 mm
Esan sääasema
Terveisin Weather Underground - 2.75 mb

Alkuperäinen skripti  Jim McMurry - jmcmurry@mwt.net Sovitettu myös templatelle  Wim van der Kuil - Leuven-Template.eu

Laitteet joita käytämme:

Sääasema
Davis VP2

Sääasemaohjelma
Cumulus

Sääaseman tietokone
Asus EeePC

Palveluntarjoaja
Suncomet

Davis VP2

Cumulus

Asus EeePC

Suncomet